Time;durP1;ratioP1;P1;durP2;ratioP2;P2;SDS_P1;SDS_P2;PMS_P1;PMS_P2;Temp;Humidity;BMP_temperature;BMP_pressure;BME280_temperature;BME280_humidity;BME280_pressure;Samples;Min_cycle;Max_cycle;Signal;HPM_P1;HPM_P2
2022/01/11 00:01:33;;;;;;;90.57;26.23;;;;;;;-146.48;100.00;46288.38;5301098;28;20107;-67
2022/01/11 00:04:04;;;;;;;62.63;24.53;;;;;;;-146.48;100.00;46398.19;5300923;28;20172;-67
2022/01/11 00:06:58;;;;;;;67.67;23.90;;;;;;;-146.48;100.00;46358.25;5302527;28;20324;-67
2022/01/11 00:09:34;;;;;;;56.87;24.07;;;;;;;-146.48;100.00;46438.13;5301457;28;20085;-67
2022/01/11 00:12:08;;;;;;;55.05;21.80;;;;;;;-146.48;100.00;46358.25;5302035;28;20039;-67
2022/01/11 00:14:39;;;;;;;55.17;22.07;;;;;;;-146.48;100.00;46498.03;5301867;28;20506;-67
2022/01/11 00:17:11;;;;;;;64.37;23.60;;;;;;;-146.48;100.00;46398.19;5301819;28;20021;-68
2022/01/11 00:19:43;;;;;;;52.17;23.53;;;;;;;-146.48;100.00;46332.31;5301912;28;20028;-68
2022/01/11 00:22:18;;;;;;;53.30;22.33;;;;;;;-146.48;100.00;46320.31;5301678;28;20031;-68
2022/01/11 00:24:50;;;;;;;48.73;22.83;;;;;;;-146.48;100.00;46264.41;5301822;28;20028;-67
2022/01/11 00:27:21;;;;;;;52.33;21.33;;;;;;;-146.48;100.00;46184.56;5302343;28;20036;-67
2022/01/11 00:29:55;;;;;;;52.57;23.67;;;;;;;-146.48;100.00;46182.56;5300717;28;20039;-67
2022/01/11 00:32:30;;;;;;;55.50;23.23;;;;;;;-146.48;100.00;46258.44;5302359;28;20016;-67
2022/01/11 00:35:03;;;;;;;52.13;23.63;;;;;;;-146.48;100.00;46332.31;5301888;28;20024;-67
2022/01/11 00:37:34;;;;;;;55.93;24.27;;;;;;;-146.48;100.00;46338.28;5301537;28;20077;-67
2022/01/11 00:40:08;;;;;;;64.07;26.20;;;;;;;-146.48;100.00;46338.28;5301539;28;20034;-68
2022/01/11 00:42:39;;;;;;;53.83;25.53;;;;;;;-146.48;100.00;46358.25;5301815;28;20367;-68
2022/01/11 00:45:12;;;;;;;62.63;27.27;;;;;;;-146.48;100.00;46344.28;5301401;28;20036;-67
2022/01/11 00:47:44;;;;;;;64.67;26.53;;;;;;;-146.48;100.00;46324.31;5301428;28;20094;-67
2022/01/11 00:50:15;;;;;;;58.20;26.37;;;;;;;-146.48;100.00;46360.25;5301261;28;20032;-67
2022/01/11 00:52:46;;;;;;;55.70;25.40;;;;;;;-146.48;100.00;46468.09;5301334;28;20441;-67
2022/01/11 00:55:18;;;;;;;62.13;27.17;;;;;;;-146.48;100.00;46372.25;5302191;28;20383;-67
2022/01/11 00:57:49;;;;;;;61.47;26.33;;;;;;;-146.48;100.00;46340.28;5300626;28;20032;-67
2022/01/11 01:00:21;;;;;;;56.80;25.63;;;;;;;-146.48;100.00;46298.38;5305967;28;20554;-67
2022/01/11 01:02:52;;;;;;;56.07;23.97;;;;;;;-146.48;100.00;46314.34;5305262;28;20433;-67
2022/01/11 01:05:23;;;;;;;58.77;25.80;;;;;;;-146.48;100.00;46318.34;5304865;28;20458;-67
2022/01/11 01:07:55;;;;;;;62.53;26.87;;;;;;;-146.48;100.00;46310.34;5305313;28;20028;-67
2022/01/11 01:10:35;;;;;;;61.27;27.07;;;;;;;-146.48;100.00;46182.56;5305730;28;20032;-67
2022/01/11 01:13:13;;;;;;;64.47;26.83;;;;;;;-146.48;100.00;46324.31;5304451;28;20024;-67
2022/01/11 01:15:49;;;;;;;58.37;26.53;;;;;;;-146.48;100.00;46356.28;5305156;28;20486;-69
2022/01/11 01:18:23;;;;;;;63.27;26.70;;;;;;;-146.48;100.00;46460.09;5305073;28;20111;-67
2022/01/11 01:20:55;;;;;;;62.63;26.93;;;;;;;-146.48;100.00;46336.31;5305053;28;20464;-67
2022/01/11 01:23:26;;;;;;;71.27;28.20;;;;;;;-146.48;100.00;46230.47;5305438;28;20031;-68
2022/01/11 01:25:59;;;;;;;60.33;26.33;;;;;;;-146.48;100.00;46222.50;5303955;28;20028;-68
2022/01/11 01:28:31;;;;;;;66.73;26.93;;;;;;;-146.48;100.00;46270.41;5305345;28;20093;-68
2022/01/11 01:31:02;;;;;;;66.37;28.17;;;;;;;-146.48;100.00;46256.44;5304878;28;20429;-67
2022/01/11 01:33:35;;;;;;;67.53;27.87;;;;;;;-146.48;100.00;46278.41;5304895;28;20078;-67
2022/01/11 01:36:11;;;;;;;65.83;27.53;;;;;;;-146.48;100.00;46208.50;5304656;28;20106;-67
2022/01/11 01:38:42;;;;;;;64.30;27.77;;;;;;;-146.48;100.00;46184.56;5304524;28;20028;-68
2022/01/11 01:41:17;;;;;;;71.77;30.17;;;;;;;-146.48;100.00;46112.69;5304397;28;20028;-67
2022/01/11 01:43:55;;;;;;;71.00;28.47;;;;;;;-146.48;100.00;46142.63;5304517;28;20085;-67
2022/01/11 01:46:26;;;;;;;66.67;28.60;;;;;;;-146.48;100.00;46106.69;5304462;28;20429;-67
2022/01/11 01:49:00;;;;;;;68.90;29.33;;;;;;;-146.48;100.00;46086.72;5304116;28;20063;-67
2022/01/11 01:51:31;;;;;;;66.60;27.77;;;;;;;-146.48;100.00;46152.59;5304906;28;20111;-68
2022/01/11 01:54:02;;;;;;;67.90;27.90;;;;;;;-146.48;100.00;46074.75;5303341;28;20423;-68
2022/01/11 01:56:34;;;;;;;68.77;28.43;;;;;;;-146.48;100.00;46070.75;5304811;28;20052;-68
2022/01/11 01:59:07;;;;;;;64.93;28.40;;;;;;;-146.48;100.00;46062.75;5304236;28;20016;-68
2022/01/11 02:01:45;;;;;;;63.90;26.60;;;;;;;-146.48;100.00;46034.81;5303439;28;20020;-68
2022/01/11 02:04:18;;;;;;;67.97;29.07;;;;;;;-146.48;100.00;45970.91;5304833;28;20107;-68
2022/01/11 02:06:50;;;;;;;63.57;26.10;;;;;;;-146.48;100.00;45946.97;5304027;28;20270;-68
2022/01/11 02:09:21;;;;;;;66.57;25.90;;;;;;;-146.48;100.00;45982.91;5303746;28;20100;-68
2022/01/11 02:11:52;;;;;;;59.10;25.07;;;;;;;-146.48;100.00;45960.94;5303141;28;20103;-68
2022/01/11 02:14:24;;;;;;;62.67;25.77;;;;;;;-146.48;100.00;45897.06;5303697;28;20032;-68
2022/01/11 02:16:56;;;;;;;56.60;23.93;;;;;;;-146.48;100.00;45946.97;5304012;28;20458;-68
2022/01/11 02:19:28;;;;;;;57.37;25.83;;;;;;;-146.48;100.00;46034.81;5304531;28;20426;-68
2022/01/11 02:21:59;;;;;;;60.47;25.33;;;;;;;-146.48;100.00;45950.97;5302973;28;20028;-69
2022/01/11 02:24:33;;;;;;;60.83;24.87;;;;;;;-146.48;100.00;46066.75;5304245;28;20028;-68
2022/01/11 02:27:04;;;;;;;61.60;26.03;;;;;;;-146.48;100.00;46158.59;5303759;28;20460;-68
2022/01/11 02:29:37;;;;;;;66.07;25.90;;;;;;;-146.48;100.00;46174.56;5303571;28;20076;-68
2022/01/11 02:32:09;;;;;;;57.27;25.27;;;;;;;-146.48;100.00;46100.69;5304194;28;20078;-68
2022/01/11 02:34:40;;;;;;;56.83;25.43;;;;;;;-146.48;100.00;46136.63;5303494;28;20032;-68
2022/01/11 02:37:12;;;;;;;57.60;24.97;;;;;;;-146.48;100.00;45988.88;5303462;28;20180;-68
2022/01/11 02:39:45;;;;;;;57.40;25.27;;;;;;;-146.48;100.00;45958.94;5303488;28;20039;-66
2022/01/11 02:42:16;;;;;;;56.83;24.17;;;;;;;-146.48;100.00;45994.88;5303858;28;20042;-67
2022/01/11 02:44:47;;;;;;;58.73;25.37;;;;;;;-146.48;100.00;46108.69;5302319;28;20359;-67
2022/01/11 02:47:19;;;;;;;54.07;23.67;;;;;;;-146.48;100.00;46100.69;5303858;28;20028;-67
2022/01/11 02:49:51;;;;;;;59.00;24.53;;;;;;;-146.48;100.00;46060.75;5302206;28;20101;-67
2022/01/11 02:52:22;;;;;;;60.77;27.57;;;;;;;-146.48;100.00;45968.94;5303754;28;20016;-67
2022/01/11 02:54:53;;;;;;;53.47;24.10;;;;;;;-146.48;100.00;45923.00;5303173;28;20035;-68
2022/01/11 02:57:24;;;;;;;56.93;25.27;;;;;;;-146.48;100.00;45982.91;5302678;28;20028;-68
2022/01/11 02:59:56;;;;;;;56.10;23.87;;;;;;;-146.48;100.00;45885.06;5302844;28;20600;-68
2022/01/11 03:02:27;;;;;;;55.70;24.37;;;;;;;-146.48;100.00;46020.84;5303558;28;20383;-68
2022/01/11 03:04:58;;;;;;;70.63;28.00;;;;;;;-146.48;100.00;45877.09;5302296;28;20024;-68
2022/01/11 03:07:30;;;;;;;64.90;26.43;;;;;;;-146.48;100.00;45891.06;5303470;28;20028;-68
2022/01/11 03:10:09;;;;;;;65.10;26.03;;;;;;;-146.48;100.00;45925.00;5302790;28;20039;-68
2022/01/11 03:12:43;;;;;;;;;;;;;;;-146.48;100.00;45950.97;5302310;28;20032;-68
2022/01/11 03:15:14;;;;;;;56.67;26.63;;;;;;;-146.48;100.00;45865.09;5303498;28;19912;-67
2022/01/11 03:17:46;;;;;;;56.13;26.23;;;;;;;-146.48;100.00;45653.50;5301640;28;20031;-67
2022/01/11 03:20:17;;;;;;;47.80;22.47;;;;;;;-146.48;100.00;45541.69;5303077;28;20020;-67
2022/01/11 03:22:48;;;;;;;55.27;25.83;;;;;;;-146.48;100.00;45358.03;5302228;28;20119;-67
2022/01/11 03:25:20;;;;;;;58.93;26.00;;;;;;;-146.48;100.00;45280.19;5302452;28;20028;-67
2022/01/11 03:27:52;;;;;;;60.30;26.53;;;;;;;-146.48;100.00;45298.16;5302634;28;20034;-67
2022/01/11 03:30:23;;;;;;;57.40;24.97;;;;;;;-146.48;100.00;45146.44;5302967;28;20035;-67
2022/01/11 03:32:55;;;;;;;60.07;27.53;;;;;;;-146.48;100.00;45172.41;5301536;28;20032;-67
2022/01/11 03:35:29;;;;;;;60.77;26.37;;;;;;;-146.48;100.00;45384.00;5302854;28;20382;-67
2022/01/11 03:38:01;;;;;;;53.00;24.33;;;;;;;-146.48;100.00;45268.22;5302145;28;20047;-67
2022/01/11 03:40:33;;;;;;;60.20;26.80;;;;;;;-146.48;100.00;45208.31;5301790;28;20413;-67
2022/01/11 03:43:05;;;;;;;57.57;26.17;;;;;;;-146.48;100.00;45172.41;5301812;28;20043;-67
2022/01/11 03:45:37;;;;;;;60.07;27.00;;;;;;;-146.48;100.00;45232.28;5302301;28;20077;-67
2022/01/11 03:48:09;;;;;;;58.60;27.07;;;;;;;-146.48;100.00;45210.31;5301715;28;20076;-67
2022/01/11 03:50:40;;;;;;;58.23;25.07;;;;;;;-146.48;100.00;45284.19;5302353;28;20443;-67
2022/01/11 03:53:15;;;;;;;56.27;25.17;;;;;;;-146.48;100.00;45334.09;5301976;28;20036;-67
2022/01/11 03:58:24;;;;;;;56.63;25.07;;;;;;;-146.48;100.00;45459.84;5302455;28;20028;-67
2022/01/11 04:00:56;;;;;;;56.17;25.87;;;;;;;-146.48;100.00;45374.00;5301355;28;20433;-68
2022/01/11 04:03:28;;;;;;;56.80;25.27;;;;;;;-146.48;100.00;45364.03;5302743;28;20098;-68
2022/01/11 04:05:59;;;;;;;57.27;26.37;;;;;;;-146.48;100.00;45358.03;5301854;28;20039;-67
2022/01/11 04:08:30;;;;;;;53.37;23.00;;;;;;;-146.48;100.00;45328.09;5301649;28;20038;-67
2022/01/11 04:11:02;;;;;;;55.20;26.10;;;;;;;-146.48;100.00;45256.22;5301857;28;20360;-66
2022/01/11 04:13:33;;;;;;;57.13;26.07;;;;;;;-146.48;100.00;45326.09;5302517;28;20024;-67
2022/01/11 04:16:06;;;;;;;54.27;25.20;;;;;;;-146.48;100.00;45344.06;5300979;28;20028;-67
2022/01/11 04:18:37;;;;;;;56.80;26.60;;;;;;;-146.48;100.00;45439.88;5302010;28;20476;-67
2022/01/11 04:21:08;;;;;;;53.10;25.03;;;;;;;-146.48;100.00;45437.88;5301616;28;20039;-67
2022/01/11 04:23:40;;;;;;;51.67;23.73;;;;;;;-146.48;100.00;45475.81;5301728;28;20476;-67
2022/01/11 04:26:11;;;;;;;50.17;22.67;;;;;;;-146.48;100.00;45497.78;5302423;28;20024;-67
2022/01/11 04:28:43;;;;;;;51.87;24.53;;;;;;;-146.48;100.00;45362.03;5300795;28;20036;-67
2022/01/11 04:31:14;;;;;;;53.67;24.70;;;;;;;-146.48;100.00;45395.97;5302191;28;20024;-67
2022/01/11 04:33:45;;;;;;;48.90;24.23;;;;;;;-146.48;100.00;45445.88;5303064;28;20085;-67
2022/01/11 04:36:17;;;;;;;52.47;24.50;;;;;;;-146.48;100.00;45352.03;5305790;28;20024;-67
2022/01/11 04:38:48;;;;;;;55.53;26.10;;;;;;;-146.48;100.00;45348.06;5305783;28;20024;-67
2022/01/11 04:41:20;;;;;;;50.97;25.00;;;;;;;-146.48;100.00;45431.91;5306515;28;20043;-67
2022/01/11 04:43:51;;;;;;;53.50;24.83;;;;;;;-146.48;100.00;45475.81;5304673;28;20036;-67
2022/01/11 04:46:22;;;;;;;47.13;23.40;;;;;;;-146.48;100.00;45481.81;5306479;28;20038;-67
2022/01/11 04:48:54;;;;;;;47.93;23.40;;;;;;;-146.48;100.00;45403.94;5305275;28;20040;-67
2022/01/11 04:51:26;;;;;;;54.30;26.13;;;;;;;-146.48;100.00;45395.97;5305439;28;20468;-67
2022/01/11 04:53:57;;;;;;;52.13;24.83;;;;;;;-146.48;100.00;45473.81;5305537;28;20024;-67
2022/01/11 04:56:29;;;;;;;51.07;24.80;;;;;;;-146.48;100.00;45499.78;5305312;28;20078;-68
2022/01/11 04:59:00;;;;;;;55.90;25.07;;;;;;;-146.48;100.00;45461.84;5305420;28;20026;-67
2022/01/11 05:01:32;;;;;;;54.43;26.90;;;;;;;-146.48;100.00;45461.84;5306079;28;20028;-67
2022/01/11 05:04:03;;;;;;;45.77;23.73;;;;;;;-146.48;100.00;45423.91;5304528;28;20031;-67
2022/01/11 05:06:35;;;;;;;49.70;24.63;;;;;;;-146.48;100.00;45393.97;5305797;28;20028;-67
2022/01/11 05:09:06;;;;;;;53.47;24.87;;;;;;;-146.48;100.00;45356.03;5305004;28;20016;-67
2022/01/11 05:11:38;;;;;;;56.80;25.93;;;;;;;-146.48;100.00;45403.94;5304555;28;20105;-67
2022/01/11 05:14:09;;;;;;;55.03;25.57;;;;;;;-146.48;100.00;45374.00;5305810;28;20020;-67
2022/01/11 05:16:40;;;;;;;61.37;27.70;;;;;;;-146.48;100.00;45407.94;5304938;28;20074;-67
2022/01/11 05:19:12;;;;;;;58.40;27.20;;;;;;;-146.48;100.00;45399.97;5304815;28;20383;-67
2022/01/11 05:21:43;;;;;;;53.73;26.47;;;;;;;-146.48;100.00;45298.16;5304827;28;20514;-67
2022/01/11 05:24:15;;;;;;;55.23;28.43;;;;;;;-146.48;100.00;45308.13;5304963;28;20032;-67
2022/01/11 05:26:46;;;;;;;63.10;27.83;;;;;;;-146.48;100.00;45318.13;5304624;28;20024;-67
2022/01/11 05:29:17;;;;;;;62.37;29.57;;;;;;;-146.48;100.00;45276.19;5305242;28;20031;-67
2022/01/11 05:31:49;;;;;;;63.43;29.17;;;;;;;-146.48;100.00;45322.09;5303430;28;20133;-67
2022/01/11 05:34:20;;;;;;;61.03;29.83;;;;;;;-146.48;100.00;45316.13;5305505;28;20032;-67
2022/01/11 05:36:52;;;;;;;59.27;27.20;;;;;;;-146.48;100.00;45350.06;5304881;28;20050;-66
2022/01/11 05:39:23;;;;;;;66.70;29.27;;;;;;;-146.48;100.00;45395.97;5304579;28;20119;-67
2022/01/11 05:41:55;;;;;;;67.40;29.77;;;;;;;-146.48;100.00;45312.13;5304651;28;20028;-67
2022/01/11 05:44:26;;;;;;;60.23;26.87;;;;;;;-146.48;100.00;45272.19;5304401;28;20089;-67
2022/01/11 05:46:57;;;;;;;63.43;30.40;;;;;;;-146.48;100.00;45234.28;5303318;28;20024;-67
2022/01/11 05:49:29;;;;;;;63.20;29.13;;;;;;;-146.48;100.00;45316.13;5304780;28;20123;-67
2022/01/11 05:52:00;;;;;;;62.07;28.67;;;;;;;-146.48;100.00;45216.31;5304211;28;20058;-67
2022/01/11 05:54:32;;;;;;;67.23;28.77;;;;;;;-146.48;100.00;45224.28;5304171;28;20384;-67
2022/01/11 05:57:03;;;;;;;64.97;28.73;;;;;;;-146.48;100.00;45166.41;5304788;28;20051;-67
2022/01/11 05:59:35;;;;;;;60.33;28.13;;;;;;;-146.48;100.00;45176.38;5303928;28;20024;-68
2022/01/11 06:02:06;;;;;;;61.50;26.73;;;;;;;-146.48;100.00;45134.47;5304010;28;20032;-68
2022/01/11 06:04:37;;;;;;;60.97;28.10;;;;;;;-146.48;100.00;45132.47;5304046;28;20454;-68
2022/01/11 06:07:08;;;;;;;65.20;27.93;;;;;;;-146.48;100.00;45246.25;5303991;28;20040;-68
2022/01/11 06:09:40;;;;;;;57.13;25.00;;;;;;;-146.48;100.00;45224.28;5303903;28;20047;-68
2022/01/11 06:12:11;;;;;;;57.73;27.20;;;;;;;-146.48;100.00;45182.38;5304640;28;20100;-68
2022/01/11 06:14:42;;;;;;;55.93;25.73;;;;;;;-146.48;100.00;45188.38;5303089;28;20026;-68
2022/01/11 06:17:14;;;;;;;51.07;23.47;;;;;;;-146.48;100.00;45206.31;5304190;28;20032;-68
2022/01/11 06:19:45;;;;;;;55.83;24.97;;;;;;;-146.48;100.00;45240.25;5303368;28;20073;-68
2022/01/11 06:22:16;;;;;;;57.30;26.03;;;;;;;-146.48;100.00;45234.28;5303319;28;20020;-68
2022/01/11 06:24:47;;;;;;;58.47;25.67;;;;;;;-146.48;100.00;45272.19;5303595;28;20020;-68
2022/01/11 06:27:19;;;;;;;56.83;25.27;;;;;;;-146.48;100.00;45350.06;5304424;28;20028;-68
2022/01/11 06:29:50;;;;;;;62.47;27.60;;;;;;;-146.48;100.00;45344.06;5302598;28;20020;-68
2022/01/11 06:32:21;;;;;;;56.27;25.63;;;;;;;-146.48;100.00;45326.09;5303859;28;20032;-69
2022/01/11 06:34:53;;;;;;;59.57;26.60;;;;;;;-146.48;100.00;45326.09;5302586;28;20155;-69
2022/01/11 06:37:25;;;;;;;58.50;28.10;;;;;;;-146.48;100.00;45324.09;5303995;28;20467;-69
2022/01/11 06:39:56;;;;;;;56.90;25.73;;;;;;;-146.48;100.00;45368.03;5303249;28;20028;-66
2022/01/11 06:42:28;;;;;;;52.90;25.07;;;;;;;-146.48;100.00;45298.16;5303101;28;20028;-67
2022/01/11 06:44:59;;;;;;;53.43;25.37;;;;;;;-146.48;100.00;45308.13;5303237;28;20027;-67
2022/01/11 06:47:30;;;;;;;51.50;25.23;;;;;;;-146.48;100.00;45389.97;5303846;28;20026;-67
2022/01/11 06:50:02;;;;;;;52.93;24.73;;;;;;;-146.48;100.00;45330.09;5302374;28;20028;-67
2022/01/11 06:52:34;;;;;;;53.07;25.27;;;;;;;-146.48;100.00;45328.09;5303987;28;20016;-68
2022/01/11 06:55:07;;;;;;;49.30;24.00;;;;;;;-146.48;100.00;45272.19;5303049;28;20066;-68
2022/01/11 06:57:38;;;;;;;51.17;24.83;;;;;;;-146.48;100.00;45256.22;5302246;28;20035;-69
2022/01/11 07:00:10;;;;;;;54.87;24.50;;;;;;;-146.48;100.00;45150.44;5303906;28;20020;-68
2022/01/11 07:02:42;;;;;;;46.77;23.47;;;;;;;-146.48;100.00;45124.50;5301899;28;20020;-68
2022/01/11 07:05:13;;;;;;;48.27;24.10;;;;;;;-146.48;100.00;45166.41;5303624;28;20020;-68
2022/01/11 07:07:45;;;;;;;50.03;23.93;;;;;;;-146.48;100.00;45234.28;5302635;28;20028;-68
2022/01/11 07:10:16;;;;;;;55.47;24.83;;;;;;;-146.48;100.00;45180.38;5302532;28;20031;-68
2022/01/11 07:12:47;;;;;;;50.33;24.43;;;;;;;-146.48;100.00;45092.56;5302630;28;20060;-68
2022/01/11 07:15:19;;;;;;;54.17;25.60;;;;;;;-146.48;100.00;45122.50;5303003;28;20502;-68
2022/01/11 07:17:50;;;;;;;53.97;24.83;;;;;;;-146.48;100.00;45068.59;5301676;28;20016;-68
2022/01/11 07:20:22;;;;;;;48.07;24.57;;;;;;;-146.48;100.00;45146.44;5303261;28;20020;-68
2022/01/11 07:22:53;;;;;;;53.13;24.97;;;;;;;-146.48;100.00;45164.41;5302856;28;20467;-68
2022/01/11 07:25:26;;;;;;;49.73;24.37;;;;;;;-146.48;100.00;45164.41;5302326;28;20028;-68
2022/01/11 07:27:57;;;;;;;51.67;25.30;;;;;;;-146.48;100.00;45226.28;5302398;28;20037;-68
2022/01/11 07:30:29;;;;;;;53.83;25.30;;;;;;;-146.48;100.00;45296.16;5303071;28;20032;-68
2022/01/11 07:33:00;;;;;;;51.70;25.47;;;;;;;-146.48;100.00;45290.16;5301467;28;20024;-68
2022/01/11 07:35:31;;;;;;;54.57;26.70;;;;;;;-146.48;100.00;45320.09;5303333;28;20512;-68
2022/01/11 07:38:03;;;;;;;50.73;24.00;;;;;;;-146.48;100.00;45308.13;5301447;28;20027;-68
2022/01/11 07:40:34;;;;;;;51.77;24.93;;;;;;;-146.48;100.00;45342.06;5302929;28;20483;-68
2022/01/11 07:43:05;;;;;;;58.13;25.63;;;;;;;-146.48;100.00;45360.03;5302219;28;20444;-69
2022/01/11 07:45:37;;;;;;;54.50;27.30;;;;;;;-146.48;100.00;45348.06;5302083;28;20081;-69
2022/01/11 07:48:08;;;;;;;54.43;25.60;;;;;;;-146.48;100.00;45326.09;5303046;28;20054;-69
2022/01/11 07:50:39;;;;;;;53.30;24.60;;;;;;;-146.48;100.00;45280.19;5302249;28;20081;-69
2022/01/11 07:53:11;;;;;;;50.67;25.63;;;;;;;-146.48;100.00;45234.28;5302206;28;20048;-69
2022/01/11 07:55:42;;;;;;;49.97;25.43;;;;;;;-146.48;100.00;45200.34;5301914;28;20020;-69
2022/01/11 07:58:13;;;;;;;47.83;24.47;;;;;;;-146.48;100.00;45248.25;5302851;28;20047;-69
2022/01/11 08:00:45;;;;;;;46.67;23.33;;;;;;;-146.48;100.00;45274.19;5301250;28;20016;-69
2022/01/11 08:03:16;;;;;;;40.43;20.60;;;;;;;-146.48;100.00;45284.19;5302660;28;20035;-69
2022/01/11 08:05:48;;;;;;;42.47;21.40;;;;;;;-146.48;100.00;45152.44;5301871;28;20025;-69
2022/01/11 08:08:19;;;;;;;43.33;21.50;;;;;;;-146.48;100.00;45102.53;5301524;28;20025;-69
2022/01/11 08:10:51;;;;;;;43.33;20.87;;;;;;;-146.48;100.00;45100.53;5301812;28;20036;-68
2022/01/11 08:13:23;;;;;;;44.20;22.37;;;;;;;-146.48;100.00;45086.56;5301802;28;20375;-68
2022/01/11 08:15:54;;;;;;;43.77;20.77;;;;;;;-146.48;100.00;45158.41;5301943;28;20028;-68
2022/01/11 08:18:25;;;;;;;43.97;21.03;;;;;;;-146.48;100.00;45122.50;5302569;28;20115;-69
2022/01/11 08:20:57;;;;;;;35.50;20.13;;;;;;;-146.48;100.00;45154.44;5301350;28;20028;-68
2022/01/11 08:23:28;;;;;;;43.53;21.13;;;;;;;-146.48;100.00;44803.13;5302684;28;20036;-68
2022/01/11 08:26:00;;;;;;;35.27;19.43;;;;;;;-146.48;100.00;44493.78;5301992;28;20032;-68
2022/01/11 08:28:32;;;;;;;37.80;19.50;;;;;;;-146.48;100.00;44274.25;5301688;28;20023;-69
2022/01/11 08:31:03;;;;;;;35.13;18.00;;;;;;;-146.48;100.00;43773.38;5301759;28;20111;-68
2022/01/11 08:33:35;;;;;;;37.60;19.30;;;;;;;-146.48;100.00;43641.66;5302527;28;20107;-71
2022/01/11 08:36:07;;;;;;;31.60;16.80;;;;;;;-146.48;100.00;43937.00;5300940;28;20032;-68
2022/01/11 08:38:38;;;;;;;31.67;18.27;;;;;;;-146.48;100.00;43962.94;5301853;28;20020;-68
2022/01/11 08:41:10;;;;;;;33.13;17.60;;;;;;;-146.48;100.00;44116.59;5301615;28;20108;-69
2022/01/11 08:43:41;;;;;;;29.87;16.53;;;;;;;-146.48;100.00;43982.88;5301611;28;20051;-68
2022/01/11 08:46:16;;;;;;;31.27;16.70;;;;;;;-146.48;100.00;43903.06;5302362;28;20035;-68
2022/01/11 08:48:47;;;;;;;29.90;16.33;;;;;;;-146.48;100.00;44078.66;5300463;28;20048;-68
2022/01/11 08:51:18;;;;;;;30.53;16.87;;;;;;;-146.48;100.00;43799.31;5302332;28;20027;-68
2022/01/11 08:53:50;;;;;;;27.30;16.20;;;;;;;-146.48;100.00;43525.94;5301567;28;20054;-68
2022/01/11 08:56:21;;;;;;;32.20;16.57;;;;;;;-146.48;100.00;43252.59;5301543;28;20178;-68
2022/01/11 08:58:52;;;;;;;28.10;15.13;;;;;;;-146.48;100.00;42949.34;5301526;28;20059;-68
2022/01/11 09:01:26;;;;;;;27.37;16.17;;;;;;;-146.48;100.00;42875.53;5297441;28;20032;-67
2022/01/11 09:03:58;;;;;;;26.67;14.97;;;;;;;-146.48;100.00;42821.66;5298441;28;20032;-68
2022/01/11 09:06:29;;;;;;;26.47;15.33;;;;;;;-146.48;100.00;42699.97;5300655;28;20039;-68
2022/01/11 09:09:02;;;;;;;25.87;15.40;;;;;;;-146.48;100.00;42524.44;5300959;28;20082;-68
2022/01/11 09:11:34;;;;;;;25.90;14.93;;;;;;;-146.48;100.00;42370.84;5301180;28;20030;-68
2022/01/11 09:14:05;;;;;;;28.07;14.47;;;;;;;-146.48;100.00;42364.84;5301212;28;20091;-68
2022/01/11 09:16:37;;;;;;;29.27;14.63;;;;;;;-146.48;100.00;42320.97;5300616;28;20032;-68
2022/01/11 09:19:08;;;;;;;25.10;14.53;;;;;;;-146.48;100.00;41999.84;5302234;28;20031;-67
2022/01/11 09:21:40;;;;;;;24.33;13.60;;;;;;;-146.48;100.00;41860.22;5304973;28;20028;-68
2022/01/11 09:24:12;;;;;;;27.03;14.60;;;;;;;-146.48;100.00;41969.94;5304376;28;20028;-68
2022/01/11 09:26:44;;;;;;;25.13;14.17;;;;;;;-146.48;100.00;41660.78;5304609;28;20551;-68
2022/01/11 09:29:15;;;;;;;26.63;15.00;;;;;;;-146.48;100.00;41333.72;5305541;28;20103;-68
2022/01/11 09:31:47;;;;;;;24.17;14.13;;;;;;;-146.48;100.00;41226.03;5303238;28;20024;-68
2022/01/11 09:34:18;;;;;;;23.43;13.57;;;;;;;-146.48;100.00;40998.72;5305054;28;20032;-68
2022/01/11 09:36:50;;;;;;;24.67;14.20;;;;;;;-146.48;100.00;40825.25;5304030;28;20388;-68
2022/01/11 09:39:22;;;;;;;22.63;13.10;;;;;;;-146.48;100.00;40695.66;5304575;28;20028;-68
2022/01/11 09:41:53;;;;;;;26.13;14.27;;;;;;;-146.48;100.00;40675.72;5304307;28;20036;-68
2022/01/11 09:44:25;;;;;;;23.50;14.13;;;;;;;-146.48;100.00;40717.56;5304408;28;20115;-68
2022/01/11 09:46:56;;;;;;;24.67;13.23;;;;;;;-146.48;100.00;40695.66;5304373;28;20028;-68
2022/01/11 09:49:28;;;;;;;25.50;14.05;;;;;;;-146.48;100.00;40589.97;5304619;28;20051;-70
2022/01/11 09:52:02;;;;;;;24.85;12.88;;;;;;;-146.48;100.00;40462.38;5303149;28;20529;-68
2022/01/11 09:54:36;;;;;;;22.27;12.10;;;;;;;-146.48;100.00;40324.81;5304973;28;20456;-68
2022/01/11 09:57:09;;;;;;;22.90;13.43;;;;;;;-146.48;100.00;40183.25;5304736;28;20024;-68
2022/01/11 09:59:41;;;;;;;21.40;11.57;;;;;;;-146.48;100.00;40107.50;5303666;28;20028;-68
2022/01/11 10:02:13;;;;;;;21.00;12.33;;;;;;;-146.48;100.00;40121.47;5304898;28;20028;-68
2022/01/11 10:04:45;;;;;;;21.30;12.40;;;;;;;-146.48;100.00;40079.59;5303984;28;20024;-68
2022/01/11 10:07:16;;;;;;;21.37;12.57;;;;;;;-146.48;100.00;40125.44;5304196;28;20024;-68
2022/01/11 10:09:49;;;;;;;23.10;12.97;;;;;;;-146.48;100.00;40037.72;5304214;28;20020;-68
2022/01/11 10:12:22;;;;;;;24.60;12.83;;;;;;;-146.48;100.00;39942.03;5304775;28;20131;-68
2022/01/11 10:14:55;;;;;;;18.05;11.40;;;;;;;-146.48;100.00;39764.63;5303242;28;20054;-69
2022/01/11 10:17:29;;;;;;;20.20;12.07;;;;;;;-146.48;100.00;39647.03;5304337;28;20103;-69
2022/01/11 10:20:04;;;;;;;23.75;12.10;;;;;;;-146.48;100.00;39499.53;5303427;28;20048;-69
2022/01/11 10:22:48;;;;;;;20.23;10.70;;;;;;;-146.48;100.00;39379.94;5304843;28;20024;-69
2022/01/11 10:25:20;;;;;;;18.38;10.48;;;;;;;-146.48;100.00;39226.44;5302910;28;20531;-69
2022/01/11 10:27:59;;;;;;;17.83;11.13;;;;;;;-146.48;100.00;39076.97;5302586;28;20024;-69
2022/01/11 10:30:31;;;;;;;24.00;11.50;;;;;;;-146.48;100.00;39013.19;5304209;28;20085;-69
2022/01/11 10:33:07;;;;;;;18.87;11.23;;;;;;;-146.48;100.00;38899.59;5303234;28;20028;-69
2022/01/11 10:35:45;;;;;;;20.10;10.95;;;;;;;-146.48;100.00;38871.69;5302914;28;20166;-68
2022/01/11 10:38:28;;;;;;;19.87;10.30;;;;;;;-146.48;100.00;38873.69;5303088;28;20020;-69
2022/01/11 10:41:01;;;;;;;20.08;10.55;;;;;;;-146.48;100.00;38791.97;5301902;28;20054;-68
2022/01/11 10:43:42;;;;;;;19.67;10.65;;;;;;;-146.48;100.00;38778.03;5303435;28;20060;-69
2022/01/11 10:46:13;;;;;;;17.73;11.02;;;;;;;-146.48;100.00;38807.91;5303011;28;20452;-68
2022/01/11 10:48:45;;;;;;;18.25;10.02;;;;;;;-146.48;100.00;38706.28;5301869;28;20055;-69
2022/01/11 10:51:16;;;;;;;18.92;10.48;;;;;;;-146.48;100.00;38702.31;5303686;28;20468;-68
2022/01/11 10:53:49;;;;;;;19.92;10.63;;;;;;;-146.48;100.00;38596.69;5303454;28;20020;-67
2022/01/11 10:56:37;;;;;;;17.73;9.60;;;;;;;-146.48;100.00;38459.19;5302948;28;20039;-67
2022/01/11 10:59:10;;;;;;;19.60;10.15;;;;;;;-146.48;100.00;38253.94;5303969;28;20048;-68
2022/01/11 11:01:44;;;;;;;17.77;9.35;;;;;;;-146.48;100.00;37931.16;5303391;28;20033;-68
2022/01/11 11:04:31;;;;;;;16.08;9.38;;;;;;;-146.48;100.00;37849.47;5303221;28;20035;-68
2022/01/11 11:07:13;;;;;;;15.70;8.90;;;;;;;-146.48;100.00;37668.16;5303071;28;20032;-68
2022/01/11 11:09:50;;;;;;;18.17;10.02;;;;;;;-146.48;100.00;37562.56;5302380;28;20420;-68
2022/01/11 11:12:23;;;;;;;16.02;9.55;;;;;;;-146.48;100.00;37478.88;5303714;28;20031;-69
2022/01/11 11:14:56;;;;;;;14.23;8.35;;;;;;;-146.48;100.00;37389.25;5302284;28;20032;-68
2022/01/11 11:17:34;;;;;;;18.77;9.93;;;;;;;-146.48;100.00;37315.53;5302640;28;20053;-67
2022/01/11 11:20:08;;;;;;;16.10;8.43;;;;;;;-146.48;100.00;37371.31;5302853;28;20158;-68